createdAt,value
2022-11-15T00:01:54.594Z,4.07
2022-11-15T00:04:45.993Z,4.16
2022-11-15T00:07:54.740Z,4.17
2022-11-15T00:10:44.093Z,4.07
2022-11-15T00:13:33.779Z,3.95
2022-11-15T00:16:23.132Z,3.89
2022-11-15T00:19:12.548Z,3.91
2022-11-15T00:22:04.262Z,3.99
2022-11-15T00:24:53.436Z,4.09
2022-11-15T00:27:43.477Z,4.18
2022-11-15T00:30:32.863Z,4.19
2022-11-15T00:33:22.017Z,4.16
2022-11-15T00:36:13.611Z,4.01
2022-11-15T00:39:05.127Z,3.88
2022-11-15T00:41:54.461Z,3.88
2022-11-15T00:44:43.315Z,3.99
2022-11-15T00:47:35.144Z,4.09
2022-11-15T00:50:24.246Z,4.16
2022-11-15T00:53:13.337Z,4.12
2022-11-15T00:56:05.641Z,4.24
2022-11-15T00:58:54.850Z,4.21
2022-11-15T01:01:43.900Z,4.10
2022-11-15T01:04:33.165Z,3.98
2022-11-15T01:07:22.313Z,3.92
2022-11-15T01:10:12.505Z,3.91
2022-11-15T01:13:04.384Z,3.96
2022-11-15T01:15:53.604Z,4.03
2022-11-15T01:18:43.444Z,4.07
2022-11-15T01:21:32.760Z,4.16
2022-11-15T01:24:22.265Z,4.20
2022-11-15T01:27:11.327Z,4.21
2022-11-15T01:30:02.967Z,4.22
2022-11-15T01:32:52.092Z,4.20
2022-11-15T01:35:43.923Z,4.11
2022-11-15T01:38:33.144Z,4.16
2022-11-15T01:41:24.629Z,4.11
2022-11-15T01:44:48.535Z,3.95
2022-11-15T01:47:44.753Z,3.79
2022-11-15T01:50:34.955Z,3.71
2022-11-15T01:53:28.036Z,3.74
2022-11-15T01:56:20.844Z,3.78
2022-11-15T01:59:12.235Z,3.76
2022-11-15T02:02:01.816Z,3.90
2022-11-15T02:04:53.536Z,3.96
2022-11-15T02:07:42.680Z,4.13
2022-11-15T02:10:32.508Z,4.30
2022-11-15T02:13:22.160Z,4.45
2022-11-15T02:16:38.464Z,4.61
2022-11-15T02:19:53.149Z,4.73
2022-11-15T02:22:55.768Z,4.77
2022-11-15T02:25:59.154Z,4.97
2022-11-15T02:29:02.625Z,5.09
2022-11-15T02:32:00.236Z,5.18
2022-11-15T02:34:58.952Z,5.26
2022-11-15T02:37:55.744Z,5.36
2022-11-15T02:40:50.497Z,5.40
2022-11-15T02:44:01.324Z,5.50
2022-11-15T02:47:09.866Z,5.56
2022-11-15T02:50:02.866Z,5.62
2022-11-15T02:52:53.347Z,5.66
2022-11-15T02:55:45.899Z,5.68
2022-11-15T02:58:56.263Z,5.68
2022-11-15T03:01:59.272Z,5.73
2022-11-15T03:04:58.274Z,5.76
2022-11-15T03:08:00.902Z,5.74
2022-11-15T03:11:00.763Z,5.75
2022-11-15T03:13:57.303Z,5.77
2022-11-15T03:16:53.202Z,5.78
2022-11-15T03:19:48.307Z,5.79
2022-11-15T03:22:45.674Z,5.80
2022-11-15T03:25:36.787Z,5.79
2022-11-15T03:28:32.022Z,5.84
2022-11-15T03:31:38.278Z,5.86
2022-11-15T03:34:33.039Z,5.78
2022-11-15T03:37:24.681Z,5.89
2022-11-15T03:40:17.182Z,5.93
2022-11-15T03:43:12.685Z,5.94
2022-11-15T03:46:07.538Z,5.95
2022-11-15T03:49:03.460Z,5.94
2022-11-15T03:51:52.933Z,5.95
2022-11-15T03:54:52.375Z,5.96
2022-11-15T03:57:43.727Z,5.96
2022-11-15T04:00:33.118Z,5.94
2022-11-15T04:03:22.105Z,5.97
2022-11-15T04:06:11.506Z,5.98
2022-11-15T04:09:00.851Z,5.97
2022-11-15T04:11:50.105Z,5.98
2022-11-15T04:15:02.070Z,5.98
2022-11-15T04:17:53.176Z,5.98
2022-11-15T04:20:54.665Z,5.90
2022-11-15T04:23:55.951Z,5.99
2022-11-15T04:26:45.396Z,5.97
2022-11-15T04:29:40.583Z,5.99
2022-11-15T04:32:32.098Z,5.94
2022-11-15T04:35:21.268Z,6.01
2022-11-15T04:38:12.717Z,6.01
2022-11-15T04:41:01.591Z,6.00
2022-11-15T04:43:50.564Z,5.99
2022-11-15T04:46:40.005Z,5.97
2022-11-15T04:49:31.547Z,5.95
2022-11-15T04:52:20.372Z,5.93
2022-11-15T04:55:10.413Z,5.85
2022-11-15T04:58:02.954Z,5.85
2022-11-15T05:00:52.036Z,5.84
2022-11-15T05:03:53.569Z,5.80
2022-11-15T05:06:45.465Z,5.79
2022-11-15T05:09:34.512Z,5.78
2022-11-15T05:12:23.715Z,5.75
2022-11-15T05:15:13.636Z,5.73
2022-11-15T05:18:03.577Z,5.73
2022-11-15T05:20:52.622Z,5.72
2022-11-15T05:23:45.051Z,5.74
2022-11-15T05:26:34.138Z,5.76
2022-11-15T05:29:26.500Z,5.77
2022-11-15T05:32:16.269Z,5.70
2022-11-15T05:35:05.598Z,5.80
2022-11-15T05:37:54.736Z,5.81
2022-11-15T05:40:46.568Z,5.79
2022-11-15T05:43:39.644Z,5.82
2022-11-15T05:46:28.919Z,5.83
2022-11-15T05:49:23.098Z,5.84
2022-11-15T05:52:15.497Z,5.85
2022-11-15T05:55:07.039Z,5.84
2022-11-15T05:57:58.734Z,5.81
2022-11-15T06:00:47.511Z,5.81
2022-11-15T06:03:36.709Z,5.83
2022-11-15T06:06:25.745Z,5.85
2022-11-15T06:09:14.639Z,5.81
2022-11-15T06:12:03.697Z,5.84
2022-11-15T06:14:55.196Z,5.84
2022-11-15T06:17:44.412Z,5.85
2022-11-15T06:20:33.965Z,5.84
2022-11-15T06:23:22.932Z,5.84
2022-11-15T06:26:11.886Z,5.84
2022-11-15T06:29:01.252Z,5.85
2022-11-15T06:31:53.860Z,5.85
2022-11-15T06:34:43.112Z,5.87
2022-11-15T06:37:33.954Z,5.88
2022-11-15T06:40:22.913Z,5.91
2022-11-15T06:43:11.852Z,5.91
2022-11-15T06:46:02.235Z,5.93
2022-11-15T06:48:54.767Z,5.94
2022-11-15T06:51:43.647Z,5.94
2022-11-15T06:54:32.604Z,5.93
2022-11-15T06:57:21.495Z,5.91
2022-11-15T07:00:12.506Z,5.88
2022-11-15T07:03:04.472Z,5.86
2022-11-15T07:06:06.826Z,5.84
2022-11-15T07:08:56.592Z,5.85
2022-11-15T07:11:45.586Z,5.85
2022-11-15T07:14:34.514Z,5.85
2022-11-15T07:17:23.534Z,5.89
2022-11-15T07:20:14.456Z,5.91
2022-11-15T07:23:08.008Z,5.89
2022-11-15T07:25:56.962Z,5.93
2022-11-15T07:28:45.967Z,5.93
2022-11-15T07:31:34.888Z,5.94
2022-11-15T07:34:24.882Z,5.95
2022-11-15T07:37:14.987Z,5.96
2022-11-15T07:40:07.168Z,5.98
2022-11-15T07:42:59.499Z,6.02
2022-11-15T07:45:50.790Z,6.04
2022-11-15T07:48:44.851Z,6.06
2022-11-15T07:51:34.330Z,6.09
2022-11-15T07:54:23.334Z,6.11
2022-11-15T07:57:14.899Z,6.12
2022-11-15T08:00:04.428Z,6.13
2022-11-15T08:02:53.417Z,6.16
2022-11-15T08:05:43.664Z,6.18
2022-11-15T08:08:32.979Z,6.21
2022-11-15T08:11:22.362Z,6.21
2022-11-15T08:14:14.210Z,6.27
2022-11-15T08:17:03.320Z,6.31
2022-11-15T08:19:52.234Z,6.34
2022-11-15T08:22:41.478Z,6.27
2022-11-15T08:25:32.089Z,6.37
2022-11-15T08:28:22.165Z,6.40
2022-11-15T08:31:18.002Z,6.42
2022-11-15T08:34:07.151Z,6.45
2022-11-15T08:36:56.341Z,6.49
2022-11-15T08:39:45.513Z,6.52
2022-11-15T08:42:34.505Z,6.52
2022-11-15T08:45:23.411Z,6.58
2022-11-15T08:48:15.237Z,6.63
2022-11-15T08:51:04.452Z,6.66
2022-11-15T08:53:53.400Z,6.72
2022-11-15T08:56:42.757Z,6.77
2022-11-15T08:59:32.084Z,6.80
2022-11-15T09:02:21.779Z,6.84
2022-11-15T09:05:13.579Z,6.87
2022-11-15T09:08:18.788Z,6.81
2022-11-15T09:11:13.772Z,6.92
2022-11-15T09:14:03.042Z,6.96
2022-11-15T09:16:51.842Z,6.98
2022-11-15T09:19:41.192Z,7.01
2022-11-15T09:22:32.823Z,7.04
2022-11-15T09:25:22.023Z,7.07
2022-11-15T09:28:12.190Z,7.10
2022-11-15T09:31:02.670Z,7.13
2022-11-15T09:33:51.610Z,7.19
2022-11-15T09:36:40.837Z,7.25
2022-11-15T09:39:32.748Z,7.30
2022-11-15T09:42:48.875Z,7.34
2022-11-15T09:45:46.922Z,7.39
2022-11-15T09:48:54.163Z,7.42
2022-11-15T09:51:51.146Z,7.46
2022-11-15T09:57:27.271Z,7.51
2022-11-15T10:00:31.348Z,7.52
2022-11-15T10:03:18.158Z,7.56
2022-11-15T10:05:51.216Z,7.59
2022-11-15T10:08:36.144Z,7.62
2022-11-15T10:11:36.265Z,7.66
2022-11-15T10:14:07.270Z,7.69
2022-11-15T10:17:09.934Z,7.73
2022-11-15T10:19:49.835Z,7.76
2022-11-15T10:22:39.386Z,7.78
2022-11-15T10:25:23.577Z,7.81
2022-11-15T10:28:08.372Z,7.84
2022-11-15T10:30:43.563Z,7.84
2022-11-15T10:33:35.020Z,7.91
2022-11-15T10:36:26.731Z,7.97
2022-11-15T10:39:01.839Z,7.96
2022-11-15T10:41:49.696Z,8.07
2022-11-15T10:44:29.665Z,8.13
2022-11-15T10:47:32.468Z,8.19
2022-11-15T10:50:10.601Z,8.22
2022-11-15T10:52:49.440Z,8.25
2022-11-15T10:55:28.901Z,8.23
2022-11-15T10:58:05.421Z,8.29
2022-11-15T11:00:39.788Z,8.36
2022-11-15T11:03:32.684Z,8.38
2022-11-15T11:06:12.203Z,8.36
2022-11-15T11:08:43.349Z,8.48
2022-11-15T11:11:13.762Z,8.49
2022-11-15T11:13:44.197Z,8.51
2022-11-15T11:16:36.256Z,8.54
2022-11-15T11:19:22.983Z,8.58
2022-11-15T11:22:04.158Z,8.62
2022-11-15T11:24:40.709Z,8.65
2022-11-15T11:27:31.139Z,8.70
2022-11-15T11:30:10.411Z,8.71
2022-11-15T11:33:14.799Z,8.70
2022-11-15T11:35:57.083Z,8.70
2022-11-15T11:38:55.972Z,8.71
2022-11-15T11:41:47.016Z,8.72
2022-11-15T11:44:33.380Z,8.67
2022-11-15T11:47:05.145Z,8.70
2022-11-15T11:49:42.260Z,8.70
2022-11-15T11:52:20.589Z,8.70
2022-11-15T11:54:59.759Z,8.67
2022-11-15T11:57:38.866Z,8.66
2022-11-15T12:00:21.252Z,8.65
2022-11-15T12:03:05.512Z,8.62
2022-11-15T12:05:41.526Z,8.61
2022-11-15T12:08:27.801Z,8.61
2022-11-15T12:11:05.004Z,8.59
2022-11-15T12:13:38.012Z,8.61
2022-11-15T12:16:15.960Z,8.59
2022-11-15T12:18:51.476Z,8.57
2022-11-15T12:21:28.745Z,8.57
2022-11-15T12:24:07.103Z,8.58
2022-11-15T12:26:42.484Z,8.59
2022-11-15T12:29:19.257Z,8.61
2022-11-15T12:31:53.924Z,8.63
2022-11-15T12:34:42.123Z,8.66
2022-11-15T12:37:38.888Z,8.67
2022-11-15T12:40:24.045Z,8.65
2022-11-15T12:43:43.141Z,8.62
2022-11-15T12:46:27.124Z,8.61
2022-11-15T12:49:00.680Z,8.61
2022-11-15T12:52:12.457Z,8.62
2022-11-15T12:54:59.026Z,8.62
2022-11-15T12:57:38.051Z,8.58
2022-11-15T13:00:42.079Z,8.63
2022-11-15T13:03:31.365Z,8.63
2022-11-15T13:06:14.115Z,8.65
2022-11-15T13:08:53.925Z,8.56
2022-11-15T13:11:49.971Z,8.62
2022-11-15T13:14:45.110Z,8.60
2022-11-15T13:17:34.989Z,8.55
2022-11-15T13:20:21.179Z,8.55
2022-11-15T13:22:57.546Z,8.51
2022-11-15T13:25:52.034Z,8.47
2022-11-15T13:28:32.170Z,8.43
2022-11-15T13:31:05.056Z,8.40
2022-11-15T13:33:41.019Z,8.39
2022-11-15T13:36:17.610Z,8.39
2022-11-15T13:38:48.502Z,8.38
2022-11-15T13:41:24.199Z,8.38
2022-11-15T13:43:56.081Z,8.43
2022-11-15T13:46:28.421Z,8.47
2022-11-15T13:49:03.519Z,8.49
2022-11-15T13:51:41.451Z,8.51
2022-11-15T13:54:20.464Z,8.53
2022-11-15T13:56:56.958Z,8.57
2022-11-15T13:59:30.215Z,8.58
2022-11-15T14:02:05.397Z,8.57
2022-11-15T14:04:39.063Z,8.56
2022-11-15T14:07:09.609Z,8.54
2022-11-15T14:09:42.390Z,8.53
2022-11-15T14:12:33.170Z,8.50
2022-11-15T14:15:05.901Z,8.48
2022-11-15T14:17:45.628Z,8.46
2022-11-15T14:20:33.136Z,8.46
2022-11-15T14:23:04.985Z,8.45
2022-11-15T14:25:36.377Z,8.45
2022-11-15T14:28:19.764Z,8.44
2022-11-15T14:30:51.446Z,8.41
2022-11-15T14:33:25.736Z,8.38
2022-11-15T14:35:59.901Z,8.35
2022-11-15T14:38:30.992Z,8.33
2022-11-15T14:41:01.673Z,8.31
2022-11-15T14:43:32.279Z,8.28
2022-11-15T14:46:02.786Z,8.24
2022-11-15T14:48:33.786Z,8.20
2022-11-15T14:51:07.634Z,8.18
2022-11-15T14:53:38.135Z,8.15
2022-11-15T14:56:08.745Z,8.12
2022-11-15T14:58:39.350Z,8.10
2022-11-15T15:01:16.761Z,8.09
2022-11-15T15:03:48.090Z,8.06
2022-11-15T15:06:21.293Z,8.04
2022-11-15T15:08:52.218Z,8.00
2022-11-15T15:11:27.221Z,7.98
2022-11-15T15:13:59.454Z,7.95
2022-11-15T15:16:29.996Z,7.94
2022-11-15T15:19:00.586Z,7.91
2022-11-15T15:21:37.151Z,7.88
2022-11-15T15:24:08.411Z,7.85
2022-11-15T15:26:40.160Z,7.82
2022-11-15T15:29:10.689Z,7.81
2022-11-15T15:31:41.443Z,7.79
2022-11-15T15:34:16.633Z,7.76
2022-11-15T15:36:50.261Z,7.71
2022-11-15T15:39:20.811Z,7.68
2022-11-15T15:41:54.870Z,7.63
2022-11-15T15:44:28.350Z,7.59
2022-11-15T15:46:59.096Z,7.56
2022-11-15T15:49:29.734Z,7.53
2022-11-15T15:52:03.034Z,7.50
2022-11-15T15:54:33.605Z,7.47
2022-11-15T15:57:04.341Z,7.45
2022-11-15T15:59:35.709Z,7.45
2022-11-15T16:02:06.780Z,7.42
2022-11-15T16:04:37.305Z,7.42
2022-11-15T16:07:19.737Z,7.41
2022-11-15T16:10:05.474Z,7.38
2022-11-15T16:12:37.580Z,7.33
2022-11-15T16:15:08.768Z,7.31
2022-11-15T16:17:43.352Z,7.31
2022-11-15T16:20:35.162Z,7.31
2022-11-15T16:23:10.698Z,7.29
2022-11-15T16:25:42.558Z,7.31
2022-11-15T16:28:24.417Z,7.31
2022-11-15T16:31:04.617Z,7.29
2022-11-15T16:33:35.953Z,7.28
2022-11-15T16:36:07.557Z,7.25
2022-11-15T16:38:40.628Z,7.23
2022-11-15T16:41:11.301Z,7.22
2022-11-15T16:43:41.784Z,7.21
2022-11-15T16:46:18.379Z,7.20
2022-11-15T16:48:49.218Z,7.20
2022-11-15T16:51:20.154Z,7.16
2022-11-15T16:53:53.554Z,7.18
2022-11-15T16:56:28.541Z,7.18
2022-11-15T16:59:00.742Z,7.15
2022-11-15T17:01:33.631Z,7.15
2022-11-15T17:04:13.104Z,7.14
2022-11-15T17:06:44.633Z,7.14
2022-11-15T17:09:19.012Z,7.15
2022-11-15T17:11:50.168Z,7.15
2022-11-15T17:14:21.912Z,7.16
2022-11-15T17:16:52.460Z,7.16
2022-11-15T17:19:24.564Z,7.12
2022-11-15T17:21:55.140Z,7.11
2022-11-15T17:24:28.220Z,7.08
2022-11-15T17:26:58.658Z,7.08
2022-11-15T17:29:29.110Z,7.07
2022-11-15T17:31:59.675Z,7.08
2022-11-15T17:34:30.211Z,7.09
2022-11-15T17:37:00.709Z,7.11
2022-11-15T17:39:33.777Z,7.07
2022-11-15T17:42:04.421Z,7.01
2022-11-15T17:44:35.274Z,6.98
2022-11-15T17:47:05.891Z,6.92
2022-11-15T17:49:39.626Z,6.92
2022-11-15T17:52:10.708Z,6.92
2022-11-15T17:54:44.023Z,6.92
2022-11-15T17:57:14.537Z,6.91
2022-11-15T17:59:45.038Z,6.91
2022-11-15T18:02:15.970Z,6.91
2022-11-15T18:04:46.640Z,6.90
2022-11-15T18:07:17.079Z,6.89
2022-11-15T18:09:50.166Z,6.89
2022-11-15T18:12:20.565Z,6.89
2022-11-15T18:14:51.076Z,6.89
2022-11-15T18:17:21.584Z,6.88
2022-11-15T18:19:52.149Z,6.88
2022-11-15T18:22:23.676Z,6.87
2022-11-15T18:24:56.705Z,6.84
2022-11-15T18:27:27.302Z,6.83
2022-11-15T18:29:57.811Z,6.80
2022-11-15T18:32:29.120Z,6.76
2022-11-15T18:34:59.634Z,6.77
2022-11-15T18:37:30.316Z,6.76
2022-11-15T18:40:04.059Z,6.70
2022-11-15T18:42:34.841Z,6.72
2022-11-15T18:45:05.450Z,6.69
2022-11-15T18:47:37.824Z,6.65
2022-11-15T18:50:09.160Z,6.59
2022-11-15T18:52:39.813Z,6.36
2022-11-15T18:55:14.636Z,5.85
2022-11-15T18:57:45.371Z,5.11
2022-11-15T19:00:17.539Z,4.43
2022-11-15T19:02:48.206Z,3.97
2022-11-15T19:05:21.551Z,3.71
2022-11-15T19:07:52.105Z,3.52
2022-11-15T19:10:25.272Z,3.43
2022-11-15T19:12:55.834Z,3.43
2022-11-15T19:15:26.384Z,3.45
2022-11-15T19:17:57.847Z,3.49
2022-11-15T19:20:28.517Z,3.49
2022-11-15T19:22:59.103Z,3.50
2022-11-15T19:25:32.345Z,3.46
2022-11-15T19:28:02.829Z,3.37
2022-11-15T19:30:33.387Z,3.33
2022-11-15T19:33:03.845Z,3.29
2022-11-15T19:35:34.504Z,3.22
2022-11-15T19:38:05.092Z,3.17
2022-11-15T19:40:39.080Z,3.11
2022-11-15T19:43:10.417Z,3.04
2022-11-15T19:45:40.955Z,2.96
2022-11-15T19:48:11.449Z,2.87
2022-11-15T19:50:42.276Z,2.68
2022-11-15T19:53:12.826Z,2.53
2022-11-15T19:55:56.115Z,2.42
2022-11-15T19:58:28.300Z,2.40
2022-11-15T20:01:03.994Z,2.33
2022-11-15T20:03:36.117Z,2.18
2022-11-15T20:06:08.797Z,2.09
2022-11-15T20:08:39.636Z,1.99
2022-11-15T20:11:12.977Z,1.91
2022-11-15T20:13:44.526Z,1.88
2022-11-15T20:16:19.410Z,1.85
2022-11-15T20:18:50.667Z,1.82
2022-11-15T20:21:21.769Z,1.78
2022-11-15T20:23:53.238Z,1.78
2022-11-15T20:26:26.706Z,1.79
2022-11-15T20:29:01.366Z,1.80
2022-11-15T20:31:32.691Z,1.97
2022-11-15T20:34:03.567Z,2.05
2022-11-15T20:36:34.539Z,2.07
2022-11-15T20:39:05.209Z,1.90
2022-11-15T20:41:38.340Z,1.83
2022-11-15T20:44:08.935Z,1.75
2022-11-15T20:46:39.554Z,1.66
2022-11-15T20:49:10.062Z,1.57
2022-11-15T20:51:41.095Z,1.52
2022-11-15T20:54:11.935Z,1.47
2022-11-15T20:56:45.709Z,1.49
2022-11-15T20:59:16.476Z,1.70
2022-11-15T21:01:48.282Z,1.86
2022-11-15T21:04:18.870Z,2.01
2022-11-15T21:06:49.571Z,2.15
2022-11-15T21:09:32.415Z,2.33
2022-11-15T21:12:14.567Z,2.39
2022-11-15T21:14:49.146Z,2.24
2022-11-15T21:17:19.719Z,2.20
2022-11-15T21:19:50.276Z,2.26
2022-11-15T21:22:20.784Z,2.28
2022-11-15T21:24:51.235Z,2.31
2022-11-15T21:27:24.369Z,2.22
2022-11-15T21:29:55.030Z,2.34
2022-11-15T21:32:25.661Z,2.34
2022-11-15T21:34:56.143Z,2.34
2022-11-15T21:37:26.637Z,2.46
2022-11-15T21:39:57.160Z,2.63
2022-11-15T21:42:30.332Z,2.67
2022-11-15T21:45:00.875Z,2.67
2022-11-15T21:47:31.396Z,2.68
2022-11-15T21:50:01.925Z,2.65
2022-11-15T21:52:33.840Z,2.66
2022-11-15T21:55:04.409Z,2.66
2022-11-15T21:57:37.686Z,2.64
2022-11-15T22:00:21.324Z,2.56
2022-11-15T22:02:51.792Z,2.52
2022-11-15T22:05:22.681Z,2.47
2022-11-15T22:07:53.552Z,2.42
2022-11-15T22:10:24.172Z,2.31
2022-11-15T22:12:57.348Z,2.31
2022-11-15T22:15:28.112Z,2.29
2022-11-15T22:18:01.800Z,2.28
2022-11-15T22:20:48.256Z,2.31
2022-11-15T22:23:19.201Z,2.50
2022-11-15T22:25:50.096Z,2.60
2022-11-15T22:28:24.232Z,2.73
2022-11-15T22:30:57.039Z,2.84
2022-11-15T22:33:30.385Z,2.95
2022-11-15T22:36:01.929Z,3.06
2022-11-15T22:38:47.007Z,3.18
2022-11-15T22:41:17.564Z,3.27
2022-11-15T22:43:51.268Z,3.38
2022-11-15T22:46:22.128Z,3.46
2022-11-15T22:48:52.698Z,3.55
2022-11-15T22:51:23.609Z,3.59
2022-11-15T22:53:54.450Z,3.64
2022-11-15T22:56:25.146Z,3.68
2022-11-15T22:58:58.685Z,3.75
2022-11-15T23:01:29.459Z,3.77
2022-11-15T23:04:00.459Z,3.82
2022-11-15T23:06:31.194Z,3.86
2022-11-15T23:09:01.796Z,3.88
2022-11-15T23:11:53.606Z,3.90
2022-11-15T23:14:27.411Z,3.92
2022-11-15T23:16:57.981Z,3.95
2022-11-15T23:19:28.577Z,3.95
2022-11-15T23:22:11.497Z,3.97
2022-11-15T23:24:42.026Z,3.96
2022-11-15T23:27:15.437Z,3.96
2022-11-15T23:30:01.239Z,3.94
2022-11-15T23:32:43.822Z,3.96
2022-11-15T23:35:14.350Z,3.97
2022-11-15T23:37:45.348Z,3.97
2022-11-15T23:40:16.280Z,3.98
2022-11-15T23:42:46.964Z,3.99
2022-11-15T23:45:20.386Z,4.00
2022-11-15T23:47:51.100Z,4.01
2022-11-15T23:50:21.907Z,4.00
2022-11-15T23:52:52.676Z,4.00
2022-11-15T23:55:23.476Z,4.01
2022-11-15T23:57:54.226Z,4.01
